Terminal Aerodrome Forecast
Issued by NWS Springfield, MO

Home | Current Version | Previous Version | Text Only | Print | Product List | Glossary On
Versions: 1 2 3 4 5 6 7 8 9 10 11 12 13 14 15
897
FTUS43 KSGF 091121
TAFSGF
TAF
KSGF 091121Z 0912/1012 31014G24KT P6SM SCT040 SCT100
     FM091600 32017G26KT P6SM FEW050
     FM100000 32008KT P6SM SKC
     FM100500 32004KT P6SM SCT100=

USA.gov is the U.S. government's official web portal to all federal, state and local government web resources and services.